Pagina principale
METAR-TAF:

METAR-TAF

Aeroporti :

Aeroporto Internazionale di Città del Capo

Città del Capo, Sudafrica

latitudine: 33-59S, longitudine: 018-36E, altezza: 42 m

Osservazione

Il bollettino è stato emesso 47 minuti fa, alle 17:00 UTC
Vento 20 kt da sud
Temperature 16°C
Umidità 68%
Pressione 1024 hPa
Visibilità 10 km o più
nessuna nube inferiore a 1500 m e nessun cumulonembo

METAR: FACT 191700Z 17020KT CAVOK 16/10 Q1024 NOSIG

Ora: 19:47 (17:47 UTC)

Previsione

Il bollettino è stato emesso 1 ora e 47 minuti fa, alle 16:00 UTC
Previsione valida dal 19 alle 18 UTC al 20 alle 24 UTC
Vento 23 kt da sud/sud-est
Visibilità 10 km o più
nessuna nube inferiore a 1500 m e nessun cumulonembo

TAF: FACT 191600Z 1918/2024 15023KT CAVOK TX26/2012Z TN14/2004Z

Osservazioni e previsioni meteorologiche di più di 4000 aeroporti (messaggi METAR e TAF).

Le stazioni disponibili sono rappresentate dai dischi gialli e rossi sulla carta.

Puntare il mouse per vedere il nome della stazione.

Clicca sopra per visualizzare le osservazioni e previsioni meteorologiche.

Per cambiare la mappa : fare clic sui pulsanti verdi con una croce nera per ingrandire, il pulsante verde con un trattino per diminuire, o sulla freccia verde per le mappe adiacenti.


METAR-TAF: